sensor_id;sensor_type;location;lat;lon;timestamp;P1;durP1;ratioP1;P2;durP2;ratioP2
39888;SDS011;25563;50.844;4.308;2022-08-02T00:00:51;3.13;;;1.60;;
39888;SDS011;25563;50.844;4.308;2022-08-02T00:03:18;2.28;;;1.33;;
39888;SDS011;25563;50.844;4.308;2022-08-02T00:05:44;2.85;;;1.50;;
39888;SDS011;25563;50.844;4.308;2022-08-02T00:08:10;5.18;;;2.28;;
39888;SDS011;25563;50.844;4.308;2022-08-02T00:10:36;5.25;;;1.95;;
39888;SDS011;25563;50.844;4.308;2022-08-02T00:13:02;3.95;;;1.85;;
39888;SDS011;25563;50.844;4.308;2022-08-02T00:15:28;3.95;;;1.60;;
39888;SDS011;25563;50.844;4.308;2022-08-02T00:17:54;3.90;;;1.77;;
39888;SDS011;25563;50.844;4.308;2022-08-02T00:20:20;5.72;;;1.55;;
39888;SDS011;25563;50.844;4.308;2022-08-02T00:22:47;4.32;;;1.40;;
39888;SDS011;25563;50.844;4.308;2022-08-02T00:25:13;2.65;;;1.20;;
39888;SDS011;25563;50.844;4.308;2022-08-02T00:27:40;5.80;;;1.70;;
39888;SDS011;25563;50.844;4.308;2022-08-02T00:30:07;4.38;;;1.40;;
39888;SDS011;25563;50.844;4.308;2022-08-02T00:32:33;4.05;;;2.10;;
39888;SDS011;25563;50.844;4.308;2022-08-02T00:34:59;4.53;;;1.95;;
39888;SDS011;25563;50.844;4.308;2022-08-02T00:37:24;3.05;;;1.58;;
39888;SDS011;25563;50.844;4.308;2022-08-02T00:39:50;3.45;;;2.00;;
39888;SDS011;25563;50.844;4.308;2022-08-02T00:42:16;2.95;;;1.42;;
39888;SDS011;25563;50.844;4.308;2022-08-02T00:44:43;3.25;;;1.98;;
39888;SDS011;25563;50.844;4.308;2022-08-02T00:47:09;3.47;;;1.80;;
39888;SDS011;25563;50.844;4.308;2022-08-02T00:49:36;4.47;;;1.88;;
39888;SDS011;25563;50.844;4.308;2022-08-02T00:52:02;6.53;;;2.00;;
39888;SDS011;25563;50.844;4.308;2022-08-02T00:54:29;4.30;;;1.98;;
39888;SDS011;25563;50.844;4.308;2022-08-02T00:56:55;2.70;;;1.67;;
39888;SDS011;25563;50.844;4.308;2022-08-02T00:59:21;3.55;;;1.60;;
39888;SDS011;25563;50.844;4.308;2022-08-02T01:01:47;4.10;;;1.67;;
39888;SDS011;25563;50.844;4.308;2022-08-02T01:04:21;2.05;;;1.70;;
39888;SDS011;25563;50.844;4.308;2022-08-02T01:06:49;3.45;;;2.05;;
39888;SDS011;25563;50.844;4.308;2022-08-02T01:09:15;5.47;;;1.60;;
39888;SDS011;25563;50.844;4.308;2022-08-02T01:11:41;4.47;;;2.00;;
39888;SDS011;25563;50.844;4.308;2022-08-02T01:14:08;4.38;;;2.03;;
39888;SDS011;25563;50.844;4.308;2022-08-02T01:17:12;2.85;;;1.55;;
39888;SDS011;25563;50.844;4.308;2022-08-02T01:22:12;3.38;;;1.95;;
39888;SDS011;25563;50.844;4.308;2022-08-02T01:30:54;3.95;;;1.95;;
39888;SDS011;25563;50.844;4.308;2022-08-02T01:33:36;1.85;;;1.50;;
39888;SDS011;25563;50.844;4.308;2022-08-02T01:36:08;4.90;;;2.20;;
39888;SDS011;25563;50.844;4.308;2022-08-02T01:38:42;2.38;;;1.80;;
39888;SDS011;25563;50.844;4.308;2022-08-02T01:41:11;5.35;;;1.95;;
39888;SDS011;25563;50.844;4.308;2022-08-02T01:43:42;2.80;;;1.60;;
39888;SDS011;25563;50.844;4.308;2022-08-02T01:46:12;7.13;;;2.15;;
39888;SDS011;25563;50.844;4.308;2022-08-02T01:48:40;3.53;;;2.13;;
39888;SDS011;25563;50.844;4.308;2022-08-02T01:51:09;1.60;;;1.50;;
39888;SDS011;25563;50.844;4.308;2022-08-02T01:53:38;4.40;;;2.50;;
39888;SDS011;25563;50.844;4.308;2022-08-02T01:56:06;8.32;;;2.10;;
39888;SDS011;25563;50.844;4.308;2022-08-02T01:58:35;5.13;;;2.25;;
39888;SDS011;25563;50.844;4.308;2022-08-02T02:01:05;3.88;;;1.98;;
39888;SDS011;25563;50.844;4.308;2022-08-02T02:03:33;2.70;;;1.88;;
39888;SDS011;25563;50.844;4.308;2022-08-02T02:06:01;6.57;;;2.15;;
39888;SDS011;25563;50.844;4.308;2022-08-02T02:08:30;2.30;;;1.75;;
39888;SDS011;25563;50.844;4.308;2022-08-02T02:11:03;6.45;;;1.90;;
39888;SDS011;25563;50.844;4.308;2022-08-02T02:13:30;2.22;;;2.00;;
39888;SDS011;25563;50.844;4.308;2022-08-02T02:15:57;4.97;;;2.40;;
39888;SDS011;25563;50.844;4.308;2022-08-02T02:18:28;2.72;;;1.90;;
39888;SDS011;25563;50.844;4.308;2022-08-02T02:20:58;2.03;;;1.50;;
39888;SDS011;25563;50.844;4.308;2022-08-02T02:23:24;4.57;;;2.17;;
39888;SDS011;25563;50.844;4.308;2022-08-02T02:25:51;8.10;;;1.77;;
39888;SDS011;25563;50.844;4.308;2022-08-02T02:30:45;9.27;;;2.53;;
39888;SDS011;25563;50.844;4.308;2022-08-02T02:33:16;3.60;;;2.25;;
39888;SDS011;25563;50.844;4.308;2022-08-02T02:35:43;3.00;;;2.67;;
39888;SDS011;25563;50.844;4.308;2022-08-02T02:38:12;2.30;;;1.60;;
39888;SDS011;25563;50.844;4.308;2022-08-02T02:40:40;5.28;;;2.03;;
39888;SDS011;25563;50.844;4.308;2022-08-02T02:43:09;4.07;;;2.10;;
39888;SDS011;25563;50.844;4.308;2022-08-02T02:45:36;5.70;;;2.55;;
39888;SDS011;25563;50.844;4.308;2022-08-02T02:48:05;5.82;;;2.42;;
39888;SDS011;25563;50.844;4.308;2022-08-02T02:50:32;5.60;;;2.55;;
39888;SDS011;25563;50.844;4.308;2022-08-02T02:52:59;6.80;;;2.60;;
39888;SDS011;25563;50.844;4.308;2022-08-02T02:55:26;2.38;;;2.17;;
39888;SDS011;25563;50.844;4.308;2022-08-02T02:57:53;2.53;;;2.22;;
39888;SDS011;25563;50.844;4.308;2022-08-02T03:00:20;4.90;;;2.05;;
39888;SDS011;25563;50.844;4.308;2022-08-02T03:03:08;3.25;;;2.42;;
39888;SDS011;25563;50.844;4.308;2022-08-02T03:05:35;3.65;;;2.63;;
39888;SDS011;25563;50.844;4.308;2022-08-02T03:08:01;2.72;;;2.38;;
39888;SDS011;25563;50.844;4.308;2022-08-02T03:10:27;3.70;;;2.15;;
39888;SDS011;25563;50.844;4.308;2022-08-02T03:12:53;4.47;;;2.17;;
39888;SDS011;25563;50.844;4.308;2022-08-02T03:15:22;4.90;;;2.55;;
39888;SDS011;25563;50.844;4.308;2022-08-02T03:20:18;3.40;;;2.38;;
39888;SDS011;25563;50.844;4.308;2022-08-02T03:22:45;5.00;;;2.47;;
39888;SDS011;25563;50.844;4.308;2022-08-02T03:25:11;2.70;;;2.50;;
39888;SDS011;25563;50.844;4.308;2022-08-02T03:27:38;3.92;;;2.67;;
39888;SDS011;25563;50.844;4.308;2022-08-02T03:30:05;3.33;;;3.03;;
39888;SDS011;25563;50.844;4.308;2022-08-02T03:32:33;4.80;;;2.70;;
39888;SDS011;25563;50.844;4.308;2022-08-02T03:35:00;3.22;;;2.97;;
39888;SDS011;25563;50.844;4.308;2022-08-02T03:37:27;3.47;;;3.28;;
39888;SDS011;25563;50.844;4.308;2022-08-02T03:39:54;5.70;;;3.20;;
39888;SDS011;25563;50.844;4.308;2022-08-02T03:42:22;3.53;;;3.20;;
39888;SDS011;25563;50.844;4.308;2022-08-02T03:44:51;5.63;;;4.50;;
39888;SDS011;25563;50.844;4.308;2022-08-02T03:47:17;4.70;;;4.30;;
39888;SDS011;25563;50.844;4.308;2022-08-02T03:49:44;5.13;;;4.72;;
39888;SDS011;25563;50.844;4.308;2022-08-02T03:52:10;6.32;;;4.45;;
39888;SDS011;25563;50.844;4.308;2022-08-02T03:54:37;4.85;;;4.45;;
39888;SDS011;25563;50.844;4.308;2022-08-02T03:57:04;6.53;;;5.07;;
39888;SDS011;25563;50.844;4.308;2022-08-02T03:59:43;7.25;;;4.63;;
39888;SDS011;25563;50.844;4.308;2022-08-02T04:02:11;9.00;;;5.43;;
39888;SDS011;25563;50.844;4.308;2022-08-02T04:04:38;5.03;;;4.65;;
39888;SDS011;25563;50.844;4.308;2022-08-02T04:07:04;7.75;;;5.90;;
39888;SDS011;25563;50.844;4.308;2022-08-02T04:09:30;11.60;;;5.40;;
39888;SDS011;25563;50.844;4.308;2022-08-02T04:11:59;5.27;;;4.77;;
39888;SDS011;25563;50.844;4.308;2022-08-02T04:14:25;5.07;;;4.35;;
39888;SDS011;25563;50.844;4.308;2022-08-02T04:17:01;6.45;;;4.45;;
39888;SDS011;25563;50.844;4.308;2022-08-02T04:19:35;6.47;;;4.32;;
39888;SDS011;25563;50.844;4.308;2022-08-02T04:22:24;6.35;;;4.85;;
39888;SDS011;25563;50.844;4.308;2022-08-02T04:24:56;5.22;;;4.80;;
39888;SDS011;25563;50.844;4.308;2022-08-02T04:27:25;6.35;;;5.53;;
39888;SDS011;25563;50.844;4.308;2022-08-02T04:29:51;5.90;;;5.00;;
39888;SDS011;25563;50.844;4.308;2022-08-02T04:32:20;6.65;;;6.05;;
39888;SDS011;25563;50.844;4.308;2022-08-02T04:34:47;7.88;;;5.28;;
39888;SDS011;25563;50.844;4.308;2022-08-02T04:37:14;6.28;;;5.65;;
39888;SDS011;25563;50.844;4.308;2022-08-02T04:39:40;8.00;;;5.97;;
39888;SDS011;25563;50.844;4.308;2022-08-02T04:42:06;6.72;;;6.00;;
39888;SDS011;25563;50.844;4.308;2022-08-02T04:44:34;6.20;;;5.70;;
39888;SDS011;25563;50.844;4.308;2022-08-02T04:47:00;7.93;;;6.32;;
39888;SDS011;25563;50.844;4.308;2022-08-02T04:49:29;10.23;;;5.15;;
39888;SDS011;25563;50.844;4.308;2022-08-02T04:51:55;6.88;;;6.28;;
39888;SDS011;25563;50.844;4.308;2022-08-02T04:54:21;9.30;;;6.47;;
39888;SDS011;25563;50.844;4.308;2022-08-02T04:56:50;7.30;;;5.45;;
39888;SDS011;25563;50.844;4.308;2022-08-02T04:59:16;9.93;;;6.47;;
39888;SDS011;25563;50.844;4.308;2022-08-02T05:01:42;7.15;;;6.13;;
39888;SDS011;25563;50.844;4.308;2022-08-02T05:04:09;7.82;;;6.45;;
39888;SDS011;25563;50.844;4.308;2022-08-02T05:06:36;5.60;;;5.15;;
39888;SDS011;25563;50.844;4.308;2022-08-02T05:09:05;6.28;;;5.88;;
39888;SDS011;25563;50.844;4.308;2022-08-02T05:11:31;8.60;;;7.00;;
39888;SDS011;25563;50.844;4.308;2022-08-02T05:13:59;7.55;;;6.90;;
39888;SDS011;25563;50.844;4.308;2022-08-02T05:16:25;7.82;;;7.22;;
39888;SDS011;25563;50.844;4.308;2022-08-02T05:18:51;13.77;;;6.22;;
39888;SDS011;25563;50.844;4.308;2022-08-02T05:21:20;7.10;;;6.50;;
39888;SDS011;25563;50.844;4.308;2022-08-02T05:23:46;11.32;;;7.63;;
39888;SDS011;25563;50.844;4.308;2022-08-02T05:26:13;10.93;;;7.47;;
39888;SDS011;25563;50.844;4.308;2022-08-02T05:28:40;8.55;;;7.53;;
39888;SDS011;25563;50.844;4.308;2022-08-02T05:31:08;9.55;;;7.57;;
39888;SDS011;25563;50.844;4.308;2022-08-02T05:33:35;10.95;;;7.55;;
39888;SDS011;25563;50.844;4.308;2022-08-02T05:36:01;11.95;;;7.07;;
39888;SDS011;25563;50.844;4.308;2022-08-02T05:38:30;8.13;;;7.10;;
39888;SDS011;25563;50.844;4.308;2022-08-02T05:40:56;10.65;;;7.25;;
39888;SDS011;25563;50.844;4.308;2022-08-02T05:43:23;11.07;;;8.70;;
39888;SDS011;25563;50.844;4.308;2022-08-02T05:45:51;8.70;;;7.85;;
39888;SDS011;25563;50.844;4.308;2022-08-02T05:48:17;14.32;;;8.00;;
39888;SDS011;25563;50.844;4.308;2022-08-02T05:50:44;8.85;;;8.00;;
39888;SDS011;25563;50.844;4.308;2022-08-02T05:53:23;8.13;;;7.40;;
39888;SDS011;25563;50.844;4.308;2022-08-02T05:56:21;8.00;;;7.30;;
39888;SDS011;25563;50.844;4.308;2022-08-02T06:01:46;12.93;;;7.15;;
39888;SDS011;25563;50.844;4.308;2022-08-02T06:04:45;10.68;;;7.28;;
39888;SDS011;25563;50.844;4.308;2022-08-02T06:07:22;8.55;;;7.85;;
39888;SDS011;25563;50.844;4.308;2022-08-02T06:09:50;7.28;;;6.55;;
39888;SDS011;25563;50.844;4.308;2022-08-02T06:12:17;9.98;;;7.15;;
39888;SDS011;25563;50.844;4.308;2022-08-02T06:14:47;7.50;;;6.43;;
39888;SDS011;25563;50.844;4.308;2022-08-02T06:17:17;9.63;;;5.95;;
39888;SDS011;25563;50.844;4.308;2022-08-02T06:19:44;10.90;;;7.18;;
39888;SDS011;25563;50.844;4.308;2022-08-02T06:22:13;7.70;;;6.13;;
39888;SDS011;25563;50.844;4.308;2022-08-02T06:24:46;7.32;;;6.70;;
39888;SDS011;25563;50.844;4.308;2022-08-02T06:27:14;10.00;;;5.75;;
39888;SDS011;25563;50.844;4.308;2022-08-02T06:29:43;6.50;;;5.88;;
39888;SDS011;25563;50.844;4.308;2022-08-02T06:32:12;7.63;;;6.13;;
39888;SDS011;25563;50.844;4.308;2022-08-02T06:40:42;6.28;;;5.38;;
39888;SDS011;25563;50.844;4.308;2022-08-02T06:42:57;5.75;;;4.40;;
39888;SDS011;25563;50.844;4.308;2022-08-02T06:45:42;4.97;;;4.40;;
39888;SDS011;25563;50.844;4.308;2022-08-02T06:48:09;4.28;;;3.90;;
39888;SDS011;25563;50.844;4.308;2022-08-02T06:50:38;6.82;;;4.60;;
39888;SDS011;25563;50.844;4.308;2022-08-02T06:53:21;4.15;;;3.75;;
39888;SDS011;25563;50.844;4.308;2022-08-02T06:56:47;6.07;;;3.97;;
39888;SDS011;25563;50.844;4.308;2022-08-02T07:07:48;4.75;;;3.30;;
39888;SDS011;25563;50.844;4.308;2022-08-02T07:11:19;5.13;;;3.28;;
39888;SDS011;25563;50.844;4.308;2022-08-02T07:13:47;4.28;;;2.35;;
39888;SDS011;25563;50.844;4.308;2022-08-02T07:16:13;4.18;;;2.50;;
39888;SDS011;25563;50.844;4.308;2022-08-02T07:18:39;5.80;;;3.13;;
39888;SDS011;25563;50.844;4.308;2022-08-02T07:21:06;3.75;;;2.92;;
39888;SDS011;25563;50.844;4.308;2022-08-02T07:23:32;2.97;;;2.38;;
39888;SDS011;25563;50.844;4.308;2022-08-02T07:25:58;3.85;;;2.70;;
39888;SDS011;25563;50.844;4.308;2022-08-02T07:28:25;4.65;;;2.88;;
39888;SDS011;25563;50.844;4.308;2022-08-02T07:30:50;4.97;;;2.40;;
39888;SDS011;25563;50.844;4.308;2022-08-02T07:33:18;3.08;;;2.40;;
39888;SDS011;25563;50.844;4.308;2022-08-02T07:35:44;2.30;;;2.10;;
39888;SDS011;25563;50.844;4.308;2022-08-02T07:38:10;5.23;;;2.10;;
